Time;durP1;ratioP1;P1;durP2;ratioP2;P2;SDS_P1;SDS_P2;PMS_P1;PMS_P2;Temp;Humidity;BMP_temperature;BMP_pressure;BME280_temperature;BME280_humidity;BME280_pressure;Samples;Min_cycle;Max_cycle;Signal;HPM_P1;HPM_P2
2024/01/27 00:00:14;;;;;;;19.98;7.03;;;;;;;6.03;65.81;103422.88;5010545;28;20037;-59
2024/01/27 00:02:39;;;;;;;14.98;6.82;;;;;;;5.96;65.52;103419.00;5009534;28;20033;-58
2024/01/27 00:05:05;;;;;;;20.63;8.70;;;;;;;5.96;66.03;103424.53;5010515;28;20044;-59
2024/01/27 00:07:30;;;;;;;20.10;7.00;;;;;;;5.97;65.61;103417.97;5011367;28;20034;-59
2024/01/27 00:09:55;;;;;;;14.98;6.43;;;;;;;5.95;65.66;103410.91;5009758;28;20064;-60
2024/01/27 00:12:21;;;;;;;15.40;6.50;;;;;;;5.90;65.78;103417.75;5012174;28;20159;-59
2024/01/27 00:14:47;;;;;;;13.18;6.85;;;;;;;5.91;65.37;103405.69;5049841;28;20129;-60
2024/01/27 00:17:12;;;;;;;19.63;7.47;;;;;;;5.93;65.99;103407.44;5010199;28;20030;-59
2024/01/27 00:19:37;;;;;;;16.88;6.85;;;;;;;5.89;66.02;103402.22;5010139;28;20032;-59
2024/01/27 00:22:02;;;;;;;19.00;8.05;;;;;;;5.87;65.74;103397.88;5010227;28;20078;-59
2024/01/27 00:24:28;;;;;;;20.58;7.07;;;;;;;5.86;66.09;103401.69;5009493;28;20030;-59
2024/01/27 00:26:53;;;;;;;15.52;7.53;;;;;;;5.84;65.30;103400.97;5009987;28;20094;-59
2024/01/27 00:29:19;;;;;;;16.77;8.10;;;;;;;5.84;65.60;103400.97;5024893;28;20022;-59
2024/01/27 00:31:44;;;;;;;16.63;7.43;;;;;;;5.83;65.95;103402.84;5006774;28;20478;-59
2024/01/27 00:34:09;;;;;;;17.65;7.13;;;;;;;5.81;65.64;103404.88;4990471;28;20033;-59
2024/01/27 00:36:36;;;;;;;19.52;8.00;;;;;;;5.81;65.52;103409.53;4997008;28;20049;-59
2024/01/27 00:39:03;;;;;;;19.13;8.32;;;;;;;5.80;65.45;103418.84;5009892;28;20037;-59
2024/01/27 00:41:28;;;;;;;15.63;7.85;;;;;;;5.74;65.22;103417.59;5010090;28;20075;-58
2024/01/27 00:43:53;;;;;;;17.95;6.68;;;;;;;5.73;66.20;103421.34;5008897;28;20469;-59
2024/01/27 00:46:19;;;;;;;18.27;7.38;;;;;;;5.70;66.13;103421.69;5006335;28;20061;-58
2024/01/27 00:48:44;;;;;;;15.55;7.78;;;;;;;5.73;66.46;103426.00;4993480;28;20026;-59
2024/01/27 00:51:09;;;;;;;16.10;6.78;;;;;;;5.72;66.03;103427.03;4989697;28;20034;-59
2024/01/27 00:53:35;;;;;;;19.02;7.82;;;;;;;5.73;65.78;103424.13;5000014;28;20105;-61
2024/01/27 00:56:01;;;;;;;20.55;8.13;;;;;;;5.69;65.83;103424.59;5009522;28;20034;-59
2024/01/27 00:58:26;;;;;;;14.05;7.07;;;;;;;5.66;66.08;103428.56;5008974;28;20533;-59
2024/01/27 01:00:52;;;;;;;19.83;7.70;;;;;;;5.63;66.16;103424.22;5009580;28;20074;-59
2024/01/27 01:03:17;;;;;;;21.95;7.60;;;;;;;5.62;65.55;103419.72;5006972;28;20026;-59
2024/01/27 01:05:42;;;;;;;19.40;7.53;;;;;;;5.58;66.06;103425.69;4997941;28;20030;-59
2024/01/27 01:08:08;;;;;;;18.15;7.43;;;;;;;5.57;66.09;103426.72;5020127;28;20091;-59
2024/01/27 01:10:33;;;;;;;20.65;7.80;;;;;;;5.54;66.49;103425.16;5009579;28;20026;-58
2024/01/27 01:12:58;;;;;;;18.02;7.78;;;;;;;5.52;66.48;103438.22;5009341;28;20440;-58
2024/01/27 01:15:24;;;;;;;19.50;7.68;;;;;;;5.51;66.88;103450.25;5009135;28;20111;-59
2024/01/27 01:17:49;;;;;;;20.15;7.40;;;;;;;5.52;66.26;103438.22;5009722;28;20026;-59
2024/01/27 01:20:15;;;;;;;21.20;7.70;;;;;;;5.52;66.57;103426.31;5008896;28;20479;-59
2024/01/27 01:22:40;;;;;;;17.73;8.73;;;;;;;5.52;66.30;103421.69;5009222;28;20026;-59
2024/01/27 01:25:06;;;;;;;18.77;7.97;;;;;;;5.48;66.77;103431.28;5028046;28;20032;-59
2024/01/27 01:27:32;;;;;;;20.30;8.10;;;;;;;5.44;66.23;103440.88;5001127;28;20030;-59
2024/01/27 01:29:57;;;;;;;18.42;7.70;;;;;;;5.45;66.48;103426.06;5009200;28;20463;-59
2024/01/27 01:32:22;;;;;;;13.93;7.38;;;;;;;5.44;66.70;103427.13;5009001;28;20485;-59
2024/01/27 01:34:48;;;;;;;15.18;8.00;;;;;;;5.45;66.90;103422.47;5008102;28;20034;-59
2024/01/27 01:37:13;;;;;;;20.02;8.02;;;;;;;5.41;66.48;103430.16;5009474;28;20037;-59
2024/01/27 01:39:38;;;;;;;21.60;8.38;;;;;;;5.38;66.68;103433.22;5009122;28;20053;-59
2024/01/27 01:42:04;;;;;;;18.42;7.60;;;;;;;5.39;66.45;103426.72;5008271;28;20136;-59
2024/01/27 01:44:31;;;;;;;19.25;7.60;;;;;;;5.39;66.44;103432.22;5054432;28;20932;-59
2024/01/27 01:46:58;;;;;;;17.65;7.65;;;;;;;5.36;66.05;103427.03;5007812;28;20505;-59
2024/01/27 01:49:23;;;;;;;14.95;8.02;;;;;;;5.34;66.33;103427.16;5009157;28;20037;-59
2024/01/27 01:51:49;;;;;;;16.80;8.35;;;;;;;5.32;66.48;103431.13;5008899;28;20363;-59
2024/01/27 01:54:15;;;;;;;17.42;8.00;;;;;;;5.32;66.65;103442.13;5007857;28;20489;-59
2024/01/27 01:56:42;;;;;;;18.75;8.00;;;;;;;5.27;66.66;103442.59;5008492;28;20064;-58
2024/01/27 01:59:07;;;;;;;25.45;8.55;;;;;;;5.27;66.67;103438.97;5008721;28;20026;-59
2024/01/27 02:01:33;;;;;;;17.48;8.07;;;;;;;5.30;66.90;103444.16;5066483;28;20036;-58
2024/01/27 02:03:58;;;;;;;18.70;8.63;;;;;;;5.28;67.02;103438.81;5007145;28;20042;-59
2024/01/27 02:06:24;;;;;;;16.98;8.25;;;;;;;5.25;66.97;103438.25;5008690;28;20029;-59
2024/01/27 02:08:50;;;;;;;17.85;8.00;;;;;;;5.23;66.49;103440.31;5007654;28;20029;-59
2024/01/27 02:11:16;;;;;;;20.00;7.28;;;;;;;5.25;66.67;103438.25;5008606;28;20079;-58
2024/01/27 02:13:42;;;;;;;15.27;7.78;;;;;;;5.24;66.68;103437.41;5008494;28;20048;-59
2024/01/27 02:16:07;;;;;;;14.93;7.95;;;;;;;5.22;67.00;103433.91;5007904;28;20461;-59
2024/01/27 02:18:32;;;;;;;19.67;8.02;;;;;;;5.22;66.89;103435.81;5009162;28;20104;-59
2024/01/27 02:20:57;;;;;;;20.73;8.18;;;;;;;5.19;66.51;103437.00;5069484;28;20462;-59
2024/01/27 02:23:23;;;;;;;23.40;8.85;;;;;;;5.15;66.99;103439.19;4990264;28;20041;-59
2024/01/27 02:25:50;;;;;;;17.60;7.70;;;;;;;5.17;67.30;103445.41;5006007;28;20069;-59
2024/01/27 02:28:15;;;;;;;14.30;7.50;;;;;;;5.17;67.23;103445.41;5008100;28;20038;-59
2024/01/27 02:30:40;;;;;;;15.88;7.85;;;;;;;5.17;66.53;103445.41;5007755;28;20408;-59
2024/01/27 02:33:05;;;;;;;18.13;8.13;;;;;;;5.16;66.79;103451.06;5008089;28;20488;-60
2024/01/27 02:35:31;;;;;;;18.90;8.93;;;;;;;5.13;66.70;103443.09;5008339;28;20072;-58
2024/01/27 02:37:56;;;;;;;18.48;8.57;;;;;;;5.11;66.54;103447.91;5007310;28;20037;-59
2024/01/27 02:40:21;;;;;;;19.48;8.82;;;;;;;5.09;66.41;103437.03;4995626;28;20548;-59
2024/01/27 02:42:47;;;;;;;17.38;8.40;;;;;;;5.09;66.98;103442.53;4990552;28;20041;-59
2024/01/27 02:45:12;;;;;;;17.15;8.70;;;;;;;5.07;66.96;103446.47;5003972;28;20085;-59
2024/01/27 02:47:38;;;;;;;18.13;8.45;;;;;;;5.06;66.80;103442.84;5008253;28;20037;-59
2024/01/27 02:50:03;;;;;;;17.20;7.80;;;;;;;5.08;66.97;103439.97;5006960;28;20452;-59
2024/01/27 02:52:29;;;;;;;14.90;8.32;;;;;;;5.04;66.86;103442.16;5008362;28;20076;-59
2024/01/27 02:54:55;;;;;;;19.15;8.75;;;;;;;5.03;66.48;103456.03;5007995;28;20045;-59
2024/01/27 02:57:21;;;;;;;17.80;8.35;;;;;;;5.00;66.90;103440.72;5007704;28;20389;-59
2024/01/27 02:59:46;;;;;;;18.83;8.68;;;;;;;5.01;67.02;103442.44;5057419;28;20035;-59
2024/01/27 03:02:12;;;;;;;16.13;7.93;;;;;;;5.01;67.17;103445.19;5018894;28;20110;-59
2024/01/27 03:04:37;;;;;;;16.25;8.27;;;;;;;4.98;67.05;103440.00;5007320;28;20034;-59
2024/01/27 03:07:03;;;;;;;21.35;8.35;;;;;;;5.00;67.02;103439.88;5008114;28;20480;-59
2024/01/27 03:09:28;;;;;;;20.23;8.50;;;;;;;4.98;66.73;103442.75;5008504;28;20041;-59
2024/01/27 03:11:53;;;;;;;14.60;8.63;;;;;;;4.93;67.14;103442.34;5007036;28;20422;-59
2024/01/27 03:14:19;;;;;;;19.77;8.25;;;;;;;4.90;67.07;103448.16;5008406;28;20026;-59
2024/01/27 03:16:44;;;;;;;19.52;8.77;;;;;;;4.93;67.14;103445.09;5033233;28;20025;-59
2024/01/27 03:19:10;;;;;;;16.33;8.32;;;;;;;4.89;67.12;103454.69;5085186;28;20031;-59
2024/01/27 03:21:35;;;;;;;18.05;8.00;;;;;;;4.90;66.77;103445.41;5019843;28;20025;-59
2024/01/27 03:24:01;;;;;;;19.13;7.68;;;;;;;4.88;66.99;103453.81;5023750;28;20030;-59
2024/01/27 03:26:26;;;;;;;16.05;7.63;;;;;;;4.87;66.94;103449.34;5028350;28;20025;-58
2024/01/27 03:28:52;;;;;;;16.60;7.68;;;;;;;4.87;66.90;103453.94;5011027;28;20548;-59
2024/01/27 03:31:17;;;;;;;17.17;7.68;;;;;;;4.81;67.14;103454.56;5011009;28;20049;-59
2024/01/27 03:33:42;;;;;;;16.42;8.15;;;;;;;4.80;67.00;103448.22;5010420;28;20455;-59
2024/01/27 03:36:11;;;;;;;16.58;7.82;;;;;;;4.80;67.36;103458.34;5010967;28;20071;-59
2024/01/27 03:38:38;;;;;;;19.17;7.78;;;;;;;4.77;67.04;103451.25;5011247;28;20029;-59
2024/01/27 03:41:04;;;;;;;15.68;7.57;;;;;;;4.78;67.10;103461.25;5043578;28;20034;-59
2024/01/27 03:43:30;;;;;;;18.60;7.47;;;;;;;4.73;67.20;103458.09;5031633;28;20018;-59
2024/01/27 03:45:56;;;;;;;14.07;7.65;;;;;;;4.73;67.74;103451.72;5010913;28;20045;-59
2024/01/27 03:48:21;;;;;;;16.48;7.57;;;;;;;4.77;67.19;103461.41;5010559;28;20022;-59
2024/01/27 03:50:48;;;;;;;16.65;7.80;;;;;;;4.74;67.45;103445.19;5010584;28;20061;-59
2024/01/27 03:53:13;;;;;;;19.38;8.32;;;;;;;4.73;67.08;103443.47;5011083;28;20038;-58
2024/01/27 03:55:39;;;;;;;17.10;7.63;;;;;;;4.74;67.39;103447.94;5010180;28;20107;-59
2024/01/27 03:58:04;;;;;;;17.33;8.02;;;;;;;4.74;67.20;103447.94;5010672;28;20040;-58
2024/01/27 04:00:32;;;;;;;16.60;8.48;;;;;;;4.73;67.15;103454.47;5028769;28;20050;-59
2024/01/27 04:03:01;;;;;;;20.75;8.40;;;;;;;4.67;67.45;103461.41;5010556;28;20879;-59
2024/01/27 04:05:28;;;;;;;16.58;7.70;;;;;;;4.66;67.35;103463.31;5010101;28;20057;-59
2024/01/27 04:07:53;;;;;;;17.55;7.97;;;;;;;4.70;67.83;103457.50;5009383;28;20124;-59
2024/01/27 04:10:18;;;;;;;18.42;8.20;;;;;;;4.67;67.40;103458.66;5010482;28;20117;-59
2024/01/27 04:12:44;;;;;;;16.13;7.80;;;;;;;4.64;67.26;103459.84;5010576;28;20022;-58
2024/01/27 04:15:10;;;;;;;16.92;7.68;;;;;;;4.64;67.20;103457.09;5009926;28;20393;-59
2024/01/27 04:17:37;;;;;;;17.25;8.48;;;;;;;4.60;67.18;103472.19;5034190;28;20469;-58
2024/01/27 04:20:02;;;;;;;11.85;7.10;;;;;;;4.58;67.22;103460.44;5029798;28;20036;-59
2024/01/27 04:22:28;;;;;;;14.57;7.35;;;;;;;4.62;67.66;103463.75;5011012;28;20030;-58
2024/01/27 04:24:53;;;;;;;19.42;7.88;;;;;;;4.58;67.26;103465.94;5009766;28;20382;-59
2024/01/27 04:27:19;;;;;;;18.10;7.43;;;;;;;4.60;67.35;103458.44;5009860;28;20499;-58
2024/01/27 04:29:44;;;;;;;15.88;7.47;;;;;;;4.58;67.20;103456.81;5008109;28;20018;-59
2024/01/27 04:32:10;;;;;;;15.70;7.95;;;;;;;4.56;67.47;103461.59;5022669;28;20077;-59
2024/01/27 04:34:35;;;;;;;15.55;7.95;;;;;;;4.59;67.15;103464.91;5029958;28;20369;-59
2024/01/27 04:37:01;;;;;;;17.52;7.57;;;;;;;4.55;67.31;103455.22;5028751;28;20098;-58
2024/01/27 04:39:26;;;;;;;16.50;7.53;;;;;;;4.51;67.50;103459.31;5024752;28;20042;-59
2024/01/27 04:41:51;;;;;;;15.57;7.78;;;;;;;4.48;67.44;103467.88;5009869;28;20491;-58
2024/01/27 04:44:18;;;;;;;19.15;7.85;;;;;;;4.48;67.75;103464.22;5009567;28;20053;-59
2024/01/27 04:46:43;;;;;;;17.33;8.25;;;;;;;4.45;67.73;103468.16;5009809;28;20092;-58
2024/01/27 04:49:08;;;;;;;20.23;8.05;;;;;;;4.47;67.71;103477.13;5033078;28;20108;-59
2024/01/27 04:51:33;;;;;;;16.23;7.45;;;;;;;4.47;67.58;103470.75;5008972;28;20022;-59
2024/01/27 04:53:59;;;;;;;20.42;7.82;;;;;;;4.45;67.75;103465.41;5009919;28;20025;-59
2024/01/27 04:56:24;;;;;;;13.38;7.43;;;;;;;4.46;67.50;103467.13;5009829;28;20069;-59
2024/01/27 04:58:49;;;;;;;18.02;8.05;;;;;;;4.42;67.85;103466.56;5009138;28;20389;-59
2024/01/27 05:01:15;;;;;;;17.65;7.50;;;;;;;4.45;67.92;103470.06;5009945;28;20036;-59
2024/01/27 05:03:40;;;;;;;17.60;7.68;;;;;;;4.46;67.81;103469.03;5008998;28;20409;-59
2024/01/27 05:06:08;;;;;;;17.98;8.00;;;;;;;4.40;67.83;103465.88;4997266;28;20019;-59
2024/01/27 05:08:35;;;;;;;16.73;7.57;;;;;;;4.37;67.67;103457.03;5010087;28;20052;-59
2024/01/27 05:11:00;;;;;;;16.15;8.77;;;;;;;4.37;67.96;103463.41;5026739;28;20102;-59
2024/01/27 05:13:25;;;;;;;13.05;7.90;;;;;;;4.38;67.87;103469.78;5018894;28;20033;-59
2024/01/27 05:15:50;;;;;;;18.50;7.57;;;;;;;4.37;67.51;103465.28;5012383;28;20487;-59
2024/01/27 05:18:16;;;;;;;17.40;7.63;;;;;;;4.34;67.91;103468.34;5008557;28;20018;-59
2024/01/27 05:20:41;;;;;;;17.90;7.63;;;;;;;4.34;68.01;103460.94;5009433;28;20503;-59
2024/01/27 05:23:06;;;;;;;14.85;7.80;;;;;;;4.34;67.86;103473.84;5009288;28;20108;-59
2024/01/27 05:25:32;;;;;;;20.60;7.97;;;;;;;4.36;68.27;103463.53;5004143;28;20041;-59
2024/01/27 05:27:57;;;;;;;16.02;8.27;;;;;;;4.27;67.91;103465.28;5008946;28;20026;-59
2024/01/27 05:30:22;;;;;;;19.23;8.20;;;;;;;4.29;68.10;103465.16;5008591;28;20396;-59
2024/01/27 05:32:47;;;;;;;17.52;8.43;;;;;;;4.28;68.22;103463.41;5008261;28;20038;-59
2024/01/27 05:35:13;;;;;;;17.67;8.20;;;;;;;4.32;68.20;103465.75;5008690;28;20075;-59
2024/01/27 05:37:39;;;;;;;18.83;8.77;;;;;;;4.29;68.06;103457.78;5008418;28;20037;-59
2024/01/27 05:40:06;;;;;;;14.43;7.75;;;;;;;4.29;68.11;103465.16;5008057;28;20030;-59
2024/01/27 05:42:31;;;;;;;17.35;7.68;;;;;;;4.25;68.11;103452.72;5025338;28;20038;-59
2024/01/27 05:44:57;;;;;;;15.52;7.95;;;;;;;4.22;68.35;103448.38;5000299;28;20084;-59
2024/01/27 05:47:22;;;;;;;15.13;8.05;;;;;;;4.26;68.35;103437.97;4992103;28;20025;-59
2024/01/27 05:49:47;;;;;;;19.55;8.05;;;;;;;4.22;68.42;103447.53;5008042;28;20117;-60
2024/01/27 05:52:13;;;;;;;17.15;7.78;;;;;;;4.16;68.28;103443.47;5008589;28;20041;-59
2024/01/27 05:54:41;;;;;;;20.08;8.93;;;;;;;4.16;68.62;103440.72;5007710;28;20142;-59
2024/01/27 05:57:06;;;;;;;16.17;8.32;;;;;;;4.16;68.86;103447.06;4989386;28;20034;-58
2024/01/27 05:59:32;;;;;;;14.57;7.57;;;;;;;4.16;68.38;103455.31;5011965;28;20095;-59
2024/01/27 06:01:57;;;;;;;15.75;8.35;;;;;;;4.22;68.37;103447.53;5009764;28;21010;-58
2024/01/27 06:04:23;;;;;;;19.00;8.23;;;;;;;4.17;68.70;103457.09;5008666;28;20034;-59
2024/01/27 06:06:48;;;;;;;18.40;8.57;;;;;;;4.19;68.59;103455.03;5008244;28;20491;-59
2024/01/27 06:09:13;;;;;;;19.63;8.52;;;;;;;4.17;68.30;103446.09;4996095;28;20431;-59
2024/01/27 06:11:39;;;;;;;19.35;9.05;;;;;;;4.15;68.63;103444.47;5008449;28;20041;-59
2024/01/27 06:14:04;;;;;;;16.00;7.88;;;;;;;4.16;68.81;103443.47;5007715;28;20109;-59
2024/01/27 06:16:29;;;;;;;15.90;8.48;;;;;;;4.14;68.68;103443.63;5007889;28;20489;-59
2024/01/27 06:18:56;;;;;;;16.40;8.45;;;;;;;4.15;68.69;103437.09;5003951;28;20086;-59
2024/01/27 06:21:21;;;;;;;26.42;8.27;;;;;;;4.09;68.72;103440.47;5006948;28;20025;-58
2024/01/27 06:23:46;;;;;;;14.85;8.82;;;;;;;4.10;68.81;103447.69;5007657;28;20052;-59
2024/01/27 06:26:13;;;;;;;17.77;8.45;;;;;;;4.08;68.91;103451.56;5008170;28;20102;-60
2024/01/27 06:28:38;;;;;;;17.00;8.82;;;;;;;4.09;68.79;103443.22;5007464;28;20374;-60
2024/01/27 06:31:04;;;;;;;19.50;9.07;;;;;;;4.08;69.50;103452.44;5007922;28;20132;-60
2024/01/27 06:33:30;;;;;;;19.35;8.80;;;;;;;4.06;68.95;103456.38;5008517;28;20030;-60
2024/01/27 06:35:55;;;;;;;24.90;10.63;;;;;;;4.06;68.72;103451.75;4993562;28;20048;-59
2024/01/27 06:38:21;;;;;;;16.70;8.88;;;;;;;4.05;68.98;103443.63;5008436;28;20030;-58
2024/01/27 06:40:46;;;;;;;16.75;8.50;;;;;;;4.06;68.90;103456.38;5007693;28;20488;-59
2024/01/27 06:43:13;;;;;;;18.13;9.00;;;;;;;4.05;68.86;103457.34;5007411;28;20026;-60
2024/01/27 06:45:38;;;;;;;16.58;8.93;;;;;;;4.06;69.05;103454.47;5007927;28;20058;-59
2024/01/27 06:48:04;;;;;;;16.02;8.50;;;;;;;4.06;69.13;103457.22;5007976;28;20057;-59
2024/01/27 06:50:30;;;;;;;18.23;8.85;;;;;;;4.05;69.28;103462.84;5007119;28;20060;-59
2024/01/27 06:52:55;;;;;;;16.30;9.00;;;;;;;4.07;69.25;103467.19;4997565;28;20030;-59
2024/01/27 06:55:20;;;;;;;19.50;9.43;;;;;;;4.04;69.21;103480.38;5017990;28;20090;-58
2024/01/27 06:57:45;;;;;;;17.77;9.27;;;;;;;4.02;69.28;103477.78;5018267;28;20078;-59
2024/01/27 07:00:14;;;;;;;19.10;9.20;;;;;;;4.01;69.53;103488.91;5018333;28;20029;-59
2024/01/27 07:02:41;;;;;;;22.08;9.55;;;;;;;4.04;69.45;103492.22;5034510;28;20050;-59
2024/01/27 07:05:07;;;;;;;16.95;10.13;;;;;;;4.05;69.42;103493.09;5093543;28;20026;-59
2024/01/27 07:07:33;;;;;;;19.40;9.48;;;;;;;4.03;69.21;103493.25;5067976;28;20034;-59
2024/01/27 07:09:58;;;;;;;19.85;9.32;;;;;;;4.01;69.15;103505.38;5053125;28;20393;-59
2024/01/27 07:12:23;;;;;;;21.30;9.98;;;;;;;4.02;69.47;103490.66;5025891;28;20068;-59
2024/01/27 07:14:52;;;;;;;20.10;9.80;;;;;;;4.00;69.63;103501.78;5099791;28;20060;-59
2024/01/27 07:17:20;;;;;;;18.50;9.40;;;;;;;4.02;69.55;103490.66;5057806;28;20031;-59
2024/01/27 07:19:46;;;;;;;21.77;9.25;;;;;;;4.02;69.86;103493.41;5071098;28;20029;-59
2024/01/27 07:22:11;;;;;;;24.05;9.75;;;;;;;4.03;69.47;103501.50;5089257;28;20016;-59
2024/01/27 07:24:36;;;;;;;16.98;9.15;;;;;;;3.99;69.37;103504.69;5044404;28;20793;-59
2024/01/27 07:27:02;;;;;;;20.88;10.25;;;;;;;3.95;69.32;103504.09;5096620;28;20018;-59
2024/01/27 07:29:28;;;;;;;19.73;9.52;;;;;;;3.98;69.78;103508.44;5064258;28;20020;-59
2024/01/27 07:31:53;;;;;;;21.05;9.77;;;;;;;3.98;69.83;103506.56;5066040;28;20029;-59
2024/01/27 07:34:19;;;;;;;20.75;10.20;;;;;;;3.94;69.70;103505.13;5094511;28;20024;-59
2024/01/27 07:36:44;;;;;;;23.67;9.75;;;;;;;3.93;69.83;103498.75;5045433;28;20434;-59
2024/01/27 07:39:10;;;;;;;23.35;9.90;;;;;;;3.97;70.19;103507.59;5090833;28;20028;-59
2024/01/27 07:41:35;;;;;;;21.55;9.85;;;;;;;3.98;69.92;103503.81;5068512;28;20372;-59
2024/01/27 07:44:08;;;;;;;19.48;9.60;;;;;;;3.98;70.08;103503.81;5061997;28;20521;-59
2024/01/27 07:46:34;;;;;;;20.40;10.18;;;;;;;3.94;70.02;103502.38;5036542;28;20046;-59
2024/01/27 07:48:59;;;;;;;23.98;10.63;;;;;;;3.93;70.44;103506.13;5030369;28;20426;-59
2024/01/27 07:51:24;;;;;;;22.02;9.55;;;;;;;3.97;70.46;103510.34;5025206;28;20061;-59
2024/01/27 07:53:50;;;;;;;16.95;9.50;;;;;;;3.93;70.29;103517.13;5009727;28;20441;-58
2024/01/27 07:56:15;;;;;;;18.42;9.90;;;;;;;3.96;70.43;103521.44;5010868;28;20049;-58
2024/01/27 07:58:40;;;;;;;18.88;10.55;;;;;;;3.96;70.98;103513.22;5010622;28;20037;-58
2024/01/27 08:01:05;;;;;;;16.63;9.38;;;;;;;3.99;70.48;103519.28;5009850;28;20032;-58
2024/01/27 08:03:31;;;;;;;21.40;10.50;;;;;;;3.99;70.25;103519.28;5010529;28;20091;-58
2024/01/27 08:05:56;;;;;;;20.67;10.00;;;;;;;4.01;70.13;103516.38;5010748;28;20465;-58
2024/01/27 08:08:21;;;;;;;16.58;9.60;;;;;;;3.99;70.16;103504.69;5019334;28;20028;-58
2024/01/27 08:10:46;;;;;;;20.40;10.75;;;;;;;3.98;70.51;103495.56;5006707;28;20027;-58
2024/01/27 08:13:15;;;;;;;16.98;9.73;;;;;;;4.00;70.53;103499.03;5062445;28;20073;-59
2024/01/27 08:15:40;;;;;;;20.80;9.73;;;;;;;4.01;70.63;103497.13;5023400;27;20033;-59
2024/01/27 08:18:05;;;;;;;22.63;10.20;;;;;;;4.03;70.80;103504.25;5093370;28;20024;-58
2024/01/27 08:20:30;;;;;;;19.17;9.38;;;;;;;4.05;70.40;103506.81;5045196;28;20076;-59
2024/01/27 08:22:56;;;;;;;36.15;21.80;;;;;;;4.05;70.77;103495.84;5008391;28;20026;-58
2024/01/27 08:25:21;;;;;;;31.02;25.42;;;;;;;4.07;70.80;103497.44;5010159;28;20042;-58
2024/01/27 08:27:46;;;;;;;25.38;18.55;;;;;;;4.08;71.07;103503.78;5008161;28;20030;-58
2024/01/27 08:30:12;;;;;;;21.92;11.13;;;;;;;4.09;70.94;103498.19;5029987;28;20026;-58
2024/01/27 08:32:37;;;;;;;23.83;10.27;;;;;;;4.11;70.95;103490.63;5006035;28;20591;-58
2024/01/27 08:35:03;;;;;;;24.38;11.07;;;;;;;4.15;70.95;103491.22;4989496;28;20107;-58
2024/01/27 08:37:29;;;;;;;20.98;9.82;;;;;;;4.13;71.19;103504.25;4990526;28;20031;-58
2024/01/27 08:39:54;;;;;;;20.48;9.50;;;;;;;4.14;71.06;103501.34;4990408;28;20101;-58
2024/01/27 08:42:20;;;;;;;21.17;9.95;;;;;;;4.16;71.61;103509.44;4989608;28;20471;-58
2024/01/27 08:44:45;;;;;;;16.80;9.88;;;;;;;4.16;71.09;103510.28;5010937;28;20101;-58
2024/01/27 08:47:11;;;;;;;21.17;9.90;;;;;;;4.13;71.69;103510.63;5028177;28;20062;-58
2024/01/27 08:49:36;;;;;;;27.08;10.02;;;;;;;4.18;71.64;103508.28;5003029;28;20059;-59
2024/01/27 08:52:01;;;;;;;22.20;10.43;;;;;;;4.16;71.52;103510.28;5067120;28;20072;-59
2024/01/27 08:54:30;;;;;;;23.67;10.85;;;;;;;4.17;71.83;103512.06;5058485;28;20481;-59
2024/01/27 08:56:55;;;;;;;21.35;9.98;;;;;;;4.17;72.22;103506.56;5098358;28;20028;-59
2024/01/27 08:59:21;;;;;;;20.77;9.77;;;;;;;4.21;71.82;103515.38;5043923;28;20093;-59
2024/01/27 09:01:46;;;;;;;19.90;9.90;;;;;;;4.26;72.07;103521.31;5084634;28;20365;-59
2024/01/27 09:04:11;;;;;;;21.20;10.30;;;;;;;4.30;72.04;103524.63;5072124;28;20039;-59
2024/01/27 09:06:37;;;;;;;22.80;10.88;;;;;;;4.30;72.10;103524.63;5042742;28;20032;-59
2024/01/27 09:09:02;;;;;;;21.20;10.35;;;;;;;4.35;71.94;103519.56;5030497;28;20032;-59
2024/01/27 09:11:30;;;;;;;21.23;9.40;;;;;;;4.33;72.15;103521.59;5094385;28;20067;-59
2024/01/27 09:13:55;;;;;;;21.42;9.98;;;;;;;4.34;72.27;103524.19;5062841;28;20020;-59
2024/01/27 09:16:21;;;;;;;18.75;9.10;;;;;;;4.38;72.66;103524.75;5063536;27;20389;-59
2024/01/27 09:18:46;;;;;;;20.85;9.52;;;;;;;4.38;72.53;103524.75;5092504;28;20024;-59
2024/01/27 09:21:12;;;;;;;17.10;9.88;;;;;;;4.42;72.32;103528.94;5043618;28;20438;-59
2024/01/27 09:23:37;;;;;;;17.13;9.57;;;;;;;4.43;72.37;103539.78;5087431;28;20041;-59
2024/01/27 09:26:03;;;;;;;21.00;9.32;;;;;;;4.50;72.65;103541.97;5008334;28;20522;-59
2024/01/27 09:28:28;;;;;;;20.27;9.30;;;;;;;4.53;72.78;103536.19;5009374;28;20026;-59
2024/01/27 09:30:53;;;;;;;18.90;9.93;;;;;;;4.55;72.88;103539.63;5000465;28;20066;-58
2024/01/27 09:33:19;;;;;;;23.02;9.70;;;;;;;4.60;72.69;103540.94;4992292;28;20351;-59
2024/01/27 09:35:46;;;;;;;20.90;9.35;;;;;;;4.63;72.81;103554.38;4989786;28;20043;-59
2024/01/27 09:38:14;;;;;;;17.30;8.45;;;;;;;4.67;72.99;103555.81;4989130;28;20026;-59
2024/01/27 09:40:39;;;;;;;19.83;9.48;;;;;;;4.71;72.55;103556.41;4989535;28;20022;-59
2024/01/27 09:43:04;;;;;;;22.00;9.20;;;;;;;4.75;72.58;103565.22;4989216;28;20034;-59
2024/01/27 09:45:30;;;;;;;20.92;8.85;;;;;;;4.81;72.82;103570.16;4988395;28;20050;-59
2024/01/27 09:48:03;;;;;;;24.98;10.00;;;;;;;4.91;72.97;103559.97;4991458;28;20034;-59
2024/01/27 09:50:29;;;;;;;18.13;9.05;;;;;;;4.99;73.16;103568.38;5016776;28;20030;-59
2024/01/27 09:52:54;;;;;;;20.27;9.30;;;;;;;5.12;72.85;103563.38;5008250;28;20106;-59
2024/01/27 09:55:20;;;;;;;27.90;12.45;;;;;;;5.24;72.04;103566.81;5008974;28;20048;-59
2024/01/27 09:57:46;;;;;;;25.98;13.13;;;;;;;5.38;71.99;103571.84;5009097;28;20038;-59
2024/01/27 10:00:12;;;;;;;21.40;10.90;;;;;;;5.52;72.08;103570.44;5011560;28;20496;-59
2024/01/27 10:02:42;;;;;;;22.20;11.60;;;;;;;5.63;71.55;103572.13;5055092;28;20035;-59
2024/01/27 10:05:09;;;;;;;22.05;12.85;;;;;;;5.74;71.67;103576.53;5007815;28;20048;-59
2024/01/27 10:07:34;;;;;;;23.80;10.60;;;;;;;5.85;71.78;103581.84;5008356;28;20040;-60
2024/01/27 10:09:59;;;;;;;19.10;8.82;;;;;;;5.96;71.24;103578.91;5008571;28;20021;-57
2024/01/27 10:12:28;;;;;;;23.58;9.02;;;;;;;6.08;70.88;103572.13;5008524;28;20026;-60
2024/01/27 10:14:53;;;;;;;20.65;9.40;;;;;;;6.21;70.21;103570.88;5008255;28;20030;-59
2024/01/27 10:17:22;;;;;;;22.98;9.15;;;;;;;6.31;70.86;103582.72;5021821;28;20582;-60
2024/01/27 10:19:59;;;;;;;21.00;9.20;;;;;;;6.42;69.89;103588.00;5006080;28;20030;-60
2024/01/27 10:22:26;;;;;;;17.17;8.27;;;;;;;6.55;70.06;103582.06;5007877;28;20022;-60
2024/01/27 10:24:51;;;;;;;17.77;8.38;;;;;;;6.64;69.51;103581.97;5008619;28;20045;-60
2024/01/27 10:27:18;;;;;;;21.83;9.05;;;;;;;6.74;69.68;103584.63;5008345;28;20086;-59
2024/01/27 10:29:52;;;;;;;21.40;8.88;;;;;;;6.85;69.56;103577.97;5012104;28;20820;-60
2024/01/27 10:32:17;;;;;;;24.13;8.00;;;;;;;6.94;68.61;103579.75;5012259;28;20022;-59
2024/01/27 10:34:43;;;;;;;19.05;8.60;;;;;;;7.03;68.25;103578.78;5007234;28;20041;-59
2024/01/27 10:37:13;;;;;;;19.92;8.65;;;;;;;7.09;68.80;103583.66;5008415;28;20026;-59
2024/01/27 10:39:38;;;;;;;22.52;8.90;;;;;;;7.18;68.59;103586.47;5012086;28;20030;-59
2024/01/27 10:42:05;;;;;;;16.95;7.93;;;;;;;7.25;68.50;103588.41;5011061;28;20496;-59
2024/01/27 10:44:31;;;;;;;21.55;8.50;;;;;;;7.31;68.56;103582.25;5011881;28;20086;-59
2024/01/27 10:47:01;;;;;;;23.17;7.97;;;;;;;7.41;67.76;103592.28;5007246;28;20588;-60
2024/01/27 10:49:29;;;;;;;23.17;8.60;;;;;;;7.48;68.05;103582.31;5007866;28;20037;-59
2024/01/27 10:51:57;;;;;;;19.38;7.72;;;;;;;7.55;67.56;103581.50;5016238;28;20030;-59
2024/01/27 10:54:27;;;;;;;23.25;8.05;;;;;;;7.61;67.98;103575.28;5011288;28;20374;-59
2024/01/27 10:56:55;;;;;;;23.70;8.50;;;;;;;7.67;66.98;103567.38;4996899;28;20022;-59
2024/01/27 10:59:21;;;;;;;17.40;8.10;;;;;;;7.74;67.37;103565.63;5000432;28;20103;-59
2024/01/27 11:01:51;;;;;;;19.42;8.27;;;;;;;7.78;66.87;103559.63;4992093;28;20039;-59
2024/01/27 11:04:17;;;;;;;19.08;7.78;;;;;;;7.82;67.21;103558.25;4991466;28;20375;-59
2024/01/27 11:06:42;;;;;;;21.40;7.78;;;;;;;7.91;67.76;103556.38;4992079;28;20036;-59
2024/01/27 11:09:08;;;;;;;20.73;8.13;;;;;;;7.96;67.08;103553.09;4991701;28;20037;-60
2024/01/27 11:11:35;;;;;;;15.77;7.57;;;;;;;7.99;67.30;103553.63;4990981;28;20026;-59
2024/01/27 11:14:00;;;;;;;20.95;7.85;;;;;;;8.02;66.13;103547.75;4990970;28;20029;-59
2024/01/27 11:16:27;;;;;;;19.08;7.40;;;;;;;8.04;66.84;103545.66;4999579;28;20026;-59